createdAt,value
2022-10-11T00:00:43.588Z,101219.63
2022-10-11T00:01:46.150Z,101221.47
2022-10-11T00:02:48.743Z,101221.63
2022-10-11T00:03:51.127Z,101221.00
2022-10-11T00:04:53.589Z,101228.78
2022-10-11T00:05:59.044Z,101221.00
2022-10-11T00:07:04.604Z,101228.00
2022-10-11T00:08:07.035Z,101224.25
2022-10-11T00:09:11.869Z,101220.41
2022-10-11T00:10:14.275Z,101215.59
2022-10-11T00:11:19.240Z,101223.34
2022-10-11T00:12:21.577Z,101222.75
2022-10-11T00:13:24.332Z,101221.34
2022-10-11T00:14:28.085Z,101223.69
2022-10-11T00:15:31.081Z,101219.19
2022-10-11T00:16:35.957Z,101217.78
2022-10-11T00:17:38.319Z,101222.91
2022-10-11T00:18:40.630Z,101216.41
2022-10-11T00:19:43.140Z,101227.31
2022-10-11T00:20:45.695Z,101220.47
2022-10-11T00:21:48.401Z,101218.72
2022-10-11T00:22:50.751Z,101215.47
2022-10-11T00:23:53.201Z,101219.47
2022-10-11T00:24:55.615Z,101217.31
2022-10-11T00:26:04.000Z,101215.28
2022-10-11T00:27:07.608Z,101211.59
2022-10-11T00:28:10.101Z,101220.94
2022-10-11T00:29:13.007Z,101212.25
2022-10-11T00:30:15.436Z,101203.97
2022-10-11T00:31:18.014Z,101209.13
2022-10-11T00:32:20.470Z,101203.38
2022-10-11T00:33:22.970Z,101207.09
2022-10-11T00:34:28.692Z,101203.38
2022-10-11T00:35:31.531Z,101204.91
2022-10-11T00:36:34.228Z,101200.72
2022-10-11T00:37:38.833Z,101204.91
2022-10-11T00:38:41.295Z,101199.34
2022-10-11T00:39:43.654Z,101210.19
2022-10-11T00:40:46.309Z,101203.84
2022-10-11T00:41:49.483Z,101200.25
2022-10-11T00:42:54.357Z,101198.69
2022-10-11T00:44:21.102Z,101205.69
2022-10-11T00:45:35.666Z,101199.16
2022-10-11T00:46:38.680Z,101197.31
2022-10-11T00:47:41.473Z,101191.38
2022-10-11T00:48:51.074Z,101188.28
2022-10-11T00:49:57.809Z,101188.28
2022-10-11T00:51:04.972Z,101195.28
2022-10-11T00:52:31.341Z,101199.34
2022-10-11T00:53:34.224Z,101196.84
2022-10-11T00:54:41.425Z,101194.81
2022-10-11T00:55:54.058Z,101198.38
2022-10-11T00:57:03.168Z,101193.72
2022-10-11T00:58:06.518Z,101187.19
2022-10-11T00:59:16.742Z,101194.53
2022-10-11T01:00:20.286Z,101199.03
2022-10-11T01:01:22.662Z,101193.88
2022-10-11T01:02:26.479Z,101184.41
2022-10-11T01:03:31.720Z,101194.34
2022-10-11T01:04:34.715Z,101196.84
2022-10-11T01:05:39.076Z,101197.00
2022-10-11T01:06:42.112Z,101197.59
2022-10-11T01:07:48.072Z,101194.81
2022-10-11T01:08:52.326Z,101188.59
2022-10-11T01:09:54.933Z,101189.25
2022-10-11T01:10:57.740Z,101194.19
2022-10-11T01:12:03.033Z,101189.69
2022-10-11T01:13:17.496Z,101193.41
2022-10-11T01:14:25.719Z,101186.59
2022-10-11T01:15:35.071Z,101190.75
2022-10-11T01:16:40.276Z,101193.91
2022-10-11T01:17:56.951Z,101183.31
2022-10-11T01:19:19.358Z,101189.38
2022-10-11T01:20:49.779Z,101183.31
2022-10-11T01:22:06.176Z,101191.88
2022-10-11T01:23:23.396Z,101189.84
2022-10-11T01:24:36.555Z,101195.44
2022-10-11T01:26:12.659Z,101188.44
2022-10-11T01:27:26.912Z,101185.47
2022-10-11T01:28:35.077Z,101187.19
2022-10-11T01:30:05.142Z,101186.13
2022-10-11T01:31:34.493Z,101190.44
2022-10-11T01:32:49.125Z,101178.19
2022-10-11T01:34:03.351Z,101184.06
2022-10-11T01:35:55.003Z,101187.50
2022-10-11T01:37:02.139Z,101187.03
2022-10-11T01:38:20.375Z,101190.16
2022-10-11T01:39:45.382Z,101177.72
2022-10-11T01:40:53.239Z,101192.03
2022-10-11T01:42:00.596Z,101181.66
2022-10-11T01:43:05.009Z,101178.81
2022-10-11T01:44:08.462Z,101180.19
2022-10-11T01:45:16.108Z,101177.13
2022-10-11T01:46:19.843Z,101174.47
2022-10-11T01:47:23.972Z,101178.06
2022-10-11T01:48:26.136Z,101169.50
2022-10-11T01:49:28.451Z,101178.34
2022-10-11T01:50:35.516Z,101172.31
2022-10-11T01:51:47.525Z,101178.22
2022-10-11T01:52:51.069Z,101181.19
2022-10-11T01:54:14.353Z,101183.50
2022-10-11T01:55:38.383Z,101177.56
2022-10-11T01:56:49.806Z,101184.72
2022-10-11T01:58:05.791Z,101176.50
2022-10-11T01:59:45.762Z,101169.50
2022-10-11T02:01:25.623Z,101176.97
2022-10-11T02:02:46.275Z,101176.97
2022-10-11T02:04:05.644Z,101179.44
2022-10-11T02:05:21.336Z,101165.94
2022-10-11T02:06:31.074Z,101167.94
2022-10-11T02:07:49.185Z,101170.28
2022-10-11T02:09:15.323Z,101173.84
2022-10-11T02:10:28.378Z,101175.41
2022-10-11T02:11:33.496Z,101180.38
2022-10-11T02:12:47.478Z,101184.41
2022-10-11T02:14:15.828Z,101174.16
2022-10-11T02:15:20.673Z,101183.31
2022-10-11T02:16:28.843Z,101178.34
2022-10-11T02:17:35.816Z,101174.03
2022-10-11T02:18:43.612Z,101181.94
2022-10-11T02:19:50.375Z,101174.66
2022-10-11T02:20:54.001Z,101182.88
2022-10-11T02:22:03.130Z,101178.06
2022-10-11T02:23:12.724Z,101186.91
2022-10-11T02:24:23.558Z,101177.75
2022-10-11T02:25:29.019Z,101177.59
2022-10-11T02:26:33.880Z,101182.88
2022-10-11T02:27:39.541Z,101179.28
2022-10-11T02:28:45.296Z,101176.50
2022-10-11T02:29:49.734Z,101170.59
2022-10-11T02:30:52.695Z,101178.84
2022-10-11T02:31:59.588Z,101173.38
2022-10-11T02:33:07.929Z,101168.88
2022-10-11T02:34:13.444Z,101167.63
2022-10-11T02:35:17.074Z,101168.72
2022-10-11T02:36:33.275Z,101165.44
2022-10-11T02:37:56.359Z,101162.81
2022-10-11T02:39:05.223Z,101170.59
2022-10-11T02:40:13.433Z,101164.84
2022-10-11T02:41:23.680Z,101169.78
2022-10-11T02:42:36.658Z,101173.66
2022-10-11T02:43:43.315Z,101172.44
2022-10-11T02:44:53.552Z,101173.53
2022-10-11T02:46:04.692Z,101168.09
2022-10-11T02:47:08.930Z,101182.09
2022-10-11T02:48:12.939Z,101177.09
2022-10-11T02:49:17.107Z,101162.00
2022-10-11T02:50:19.585Z,101174.31
2022-10-11T02:51:21.836Z,101172.91
2022-10-11T02:52:24.184Z,101174.75
2022-10-11T02:53:27.127Z,101176.00
2022-10-11T02:54:29.500Z,101172.28
2022-10-11T02:55:32.216Z,101175.53
2022-10-11T02:56:34.610Z,101166.53
2022-10-11T02:57:36.951Z,101169.94
2022-10-11T02:58:39.856Z,101172.75
2022-10-11T02:59:42.149Z,101172.56
2022-10-11T03:00:45.006Z,101171.78
2022-10-11T03:01:47.423Z,101178.34
2022-10-11T03:02:49.979Z,101173.06
2022-10-11T03:03:52.524Z,101179.13
2022-10-11T03:04:54.868Z,101174.75
2022-10-11T03:06:02.972Z,101179.25
2022-10-11T03:07:05.550Z,101181.47
2022-10-11T03:08:09.069Z,101177.25
2022-10-11T03:09:11.493Z,101182.38
2022-10-11T03:10:13.840Z,101180.22
2022-10-11T03:11:16.111Z,101184.25
2022-10-11T03:12:18.438Z,101171.50
2022-10-11T03:13:20.806Z,101176.03
2022-10-11T03:14:24.393Z,101178.34
2022-10-11T03:15:26.965Z,101188.31
2022-10-11T03:16:29.351Z,101183.16
2022-10-11T03:17:36.675Z,101181.31
2022-10-11T03:18:39.405Z,101182.25
2022-10-11T03:19:41.780Z,101182.25
2022-10-11T03:20:44.523Z,101187.06
2022-10-11T03:21:47.011Z,101173.72
2022-10-11T03:22:49.520Z,101187.06
2022-10-11T03:23:51.851Z,101185.19
2022-10-11T03:24:54.238Z,101195.59
2022-10-11T03:25:56.749Z,101197.63
2022-10-11T03:27:00.564Z,101196.06
2022-10-11T03:28:03.122Z,101196.56
2022-10-11T03:29:05.618Z,101191.72
2022-10-11T03:30:16.130Z,101179.59
2022-10-11T03:31:20.846Z,101182.75
2022-10-11T03:32:23.305Z,101188.91
2022-10-11T03:33:25.653Z,101185.50
2022-10-11T03:34:28.106Z,101189.69
2022-10-11T03:35:30.577Z,101189.69
2022-10-11T03:36:33.074Z,101191.25
2022-10-11T03:37:35.474Z,101187.53
2022-10-11T03:38:38.069Z,101188.75
2022-10-11T03:39:40.507Z,101188.44
2022-10-11T03:40:44.132Z,101187.84
2022-10-11T03:41:46.669Z,101184.09
2022-10-11T03:42:49.112Z,101190.66
2022-10-11T03:43:51.626Z,101197.63
2022-10-11T03:44:57.383Z,101195.16
2022-10-11T03:45:59.830Z,101183.97
2022-10-11T03:47:02.285Z,101182.25
2022-10-11T03:48:05.268Z,101189.41
2022-10-11T03:49:07.593Z,101185.38
2022-10-11T03:50:10.414Z,101185.19
2022-10-11T03:51:13.420Z,101189.41
2022-10-11T03:52:15.765Z,101191.25
2022-10-11T03:53:18.293Z,101185.03
2022-10-11T03:54:20.934Z,101209.28
2022-10-11T03:55:23.337Z,101199.47
2022-10-11T03:56:26.030Z,101193.72
2022-10-11T03:57:28.425Z,101186.88
2022-10-11T03:58:32.989Z,101188.31
2022-10-11T03:59:35.264Z,101186.75
2022-10-11T04:00:37.991Z,101189.09
2022-10-11T04:01:40.394Z,101191.38
2022-10-11T04:02:42.737Z,101190.94
2022-10-11T04:03:45.052Z,101201.38
2022-10-11T04:04:47.537Z,101196.25
2022-10-11T04:05:50.031Z,101190.78
2022-10-11T04:06:52.566Z,101193.75
2022-10-11T04:07:54.946Z,101194.06
2022-10-11T04:08:57.343Z,101193.75
2022-10-11T04:10:00.041Z,101191.44
2022-10-11T04:11:02.490Z,101199.03
2022-10-11T04:12:05.193Z,101191.72
2022-10-11T04:13:08.234Z,101189.56
2022-10-11T04:14:11.084Z,101193.75
2022-10-11T04:15:16.731Z,101193.75
2022-10-11T04:16:19.483Z,101191.56
2022-10-11T04:17:22.221Z,101193.13
2022-10-11T04:18:24.870Z,101189.22
2022-10-11T04:19:27.458Z,101184.72
2022-10-11T04:20:29.930Z,101191.44
2022-10-11T04:21:32.530Z,101190.66
2022-10-11T04:22:34.993Z,101197.47
2022-10-11T04:23:39.667Z,101192.63
2022-10-11T04:24:41.993Z,101195.44
2022-10-11T04:25:45.696Z,101191.84
2022-10-11T04:26:49.702Z,101200.25
2022-10-11T04:27:52.309Z,101197.03
2022-10-11T04:28:54.889Z,101199.97
2022-10-11T04:29:59.246Z,101199.97
2022-10-11T04:31:01.828Z,101194.38
2022-10-11T04:32:04.380Z,101197.50
2022-10-11T04:33:06.827Z,101194.38
2022-10-11T04:34:09.203Z,101200.13
2022-10-11T04:35:11.985Z,101200.91
2022-10-11T04:36:14.487Z,101197.78
2022-10-11T04:37:17.725Z,101194.97
2022-10-11T04:38:23.099Z,101200.13
2022-10-11T04:39:25.542Z,101200.44
2022-10-11T04:40:28.045Z,101200.13
2022-10-11T04:41:30.514Z,101206.34
2022-10-11T04:42:33.173Z,101201.97
2022-10-11T04:43:38.306Z,101207.41
2022-10-11T04:44:45.254Z,101210.81
2022-10-11T04:45:48.957Z,101206.63
2022-10-11T04:46:53.203Z,101211.91
2022-10-11T04:47:55.580Z,101214.56
2022-10-11T04:48:57.979Z,101208.66
2022-10-11T04:50:00.548Z,101209.44
2022-10-11T04:51:02.913Z,101211.75
2022-10-11T04:52:05.660Z,101215.03
2022-10-11T04:53:09.958Z,101204.91
2022-10-11T04:54:12.532Z,101204.91
2022-10-11T04:55:15.046Z,101202.78
2022-10-11T04:56:18.782Z,101208.19
2022-10-11T04:57:21.225Z,101207.41
2022-10-11T04:58:23.605Z,101210.19
2022-10-11T04:59:28.528Z,101205.53
2022-10-11T05:00:31.407Z,101204.75
2022-10-11T05:01:34.729Z,101208.31
2022-10-11T05:02:37.284Z,101207.72
2022-10-11T05:03:39.536Z,101202.75
2022-10-11T05:04:42.951Z,101197.00
2022-10-11T05:05:45.429Z,101203.06
2022-10-11T05:06:48.326Z,101206.19
2022-10-11T05:07:50.921Z,101197.94
2022-10-11T05:08:53.369Z,101204.31
2022-10-11T05:10:03.080Z,101207.09
2022-10-11T05:11:08.698Z,101197.50
2022-10-11T05:12:11.014Z,101209.59
2022-10-11T05:13:13.787Z,101206.81
2022-10-11T05:14:16.570Z,101202.31
2022-10-11T05:15:19.103Z,101207.59
2022-10-11T05:16:21.555Z,101205.25
2022-10-11T05:17:24.315Z,101209.91
2022-10-11T05:18:27.427Z,101208.03
2022-10-11T05:19:29.889Z,101206.78
2022-10-11T05:20:32.200Z,101204.47
2022-10-11T05:21:34.739Z,101212.22
2022-10-11T05:22:37.085Z,101205.72
2022-10-11T05:23:39.560Z,101211.16
2022-10-11T05:24:42.012Z,101215.81
2022-10-11T05:25:44.621Z,101210.38
2022-10-11T05:26:47.049Z,101215.19
2022-10-11T05:27:52.827Z,101220.31
2022-10-11T05:28:55.579Z,101221.56
2022-10-11T05:29:58.143Z,101219.38
2022-10-11T05:31:00.596Z,101217.38
2022-10-11T05:32:03.048Z,101220.16
2022-10-11T05:33:06.089Z,101214.88
2022-10-11T05:34:08.473Z,101222.97
2022-10-11T05:35:10.896Z,101217.50
2022-10-11T05:36:13.645Z,101223.09
2022-10-11T05:37:16.008Z,101224.81
2022-10-11T05:38:18.659Z,101231.50
2022-10-11T05:39:21.041Z,101213.94
2022-10-11T05:40:23.494Z,101216.13
2022-10-11T05:41:26.183Z,101225.44
2022-10-11T05:42:28.670Z,101231.19
2022-10-11T05:43:33.409Z,101233.22
2022-10-11T05:44:36.020Z,101228.84
2022-10-11T05:45:40.105Z,101221.53
2022-10-11T05:46:42.501Z,101231.66
2022-10-11T05:47:45.037Z,101226.50
2022-10-11T05:48:47.321Z,101229.63
2022-10-11T05:49:49.550Z,101219.81
2022-10-11T05:50:51.990Z,101221.38
2022-10-11T05:51:54.523Z,101223.25
2022-10-11T05:52:57.402Z,101222.78
2022-10-11T05:54:00.207Z,101227.00
2022-10-11T05:55:03.629Z,101226.97
2022-10-11T05:56:16.928Z,101237.88
2022-10-11T05:57:19.341Z,101236.09
2022-10-11T05:58:22.144Z,101237.84
2022-10-11T05:59:24.564Z,101229.75
2022-10-11T06:00:27.008Z,101235.03
2022-10-11T06:01:29.610Z,101234.53
2022-10-11T06:02:34.025Z,101234.13
2022-10-11T06:03:36.390Z,101237.34
2022-10-11T06:04:39.778Z,101240.16
2022-10-11T06:05:42.265Z,101239.69
2022-10-11T06:06:45.002Z,101239.19
2022-10-11T06:07:47.506Z,101245.72
2022-10-11T06:08:50.572Z,101252.56
2022-10-11T06:09:53.137Z,101245.06
2022-10-11T06:10:55.589Z,101252.06
2022-10-11T06:11:58.152Z,101246.47
2022-10-11T06:13:00.856Z,101250.97
2022-10-11T06:14:06.104Z,101246.47
2022-10-11T06:15:10.451Z,101248.69
2022-10-11T06:16:13.802Z,101243.81
2022-10-11T06:17:16.228Z,101252.72
2022-10-11T06:18:18.753Z,101255.81
2022-10-11T06:19:22.135Z,101251.91
2022-10-11T06:20:24.598Z,101255.91
2022-10-11T06:21:27.218Z,101256.97
2022-10-11T06:22:29.963Z,101258.38
2022-10-11T06:23:32.436Z,101254.88
2022-10-11T06:24:34.932Z,101259.69
2022-10-11T06:25:40.157Z,101258.44
2022-10-11T06:26:43.974Z,101269.63
2022-10-11T06:27:49.656Z,101272.53
2022-10-11T06:28:53.191Z,101257.94
2022-10-11T06:29:56.689Z,101265.47
2022-10-11T06:30:59.685Z,101264.78
2022-10-11T06:32:02.162Z,101264.88
2022-10-11T06:33:06.971Z,101266.59
2022-10-11T06:34:09.714Z,101272.94
2022-10-11T06:35:12.515Z,101271.84
2022-10-11T06:36:17.065Z,101274.72
2022-10-11T06:37:19.721Z,101269.91
2022-10-11T06:38:22.523Z,101279.84
2022-10-11T06:39:25.098Z,101275.66
2022-10-11T06:40:27.715Z,101272.50
2022-10-11T06:41:30.978Z,101270.63
2022-10-11T06:42:33.361Z,101275.94
2022-10-11T06:43:35.740Z,101284.91
2022-10-11T06:44:39.078Z,101273.28
2022-10-11T06:45:41.907Z,101267.78
2022-10-11T06:46:44.274Z,101277.75
2022-10-11T06:47:46.863Z,101276.03
2022-10-11T06:48:52.778Z,101269.41
2022-10-11T06:49:55.441Z,101281.69
2022-10-11T06:51:01.472Z,101275.13
2022-10-11T06:52:04.019Z,101275.88
2022-10-11T06:53:09.741Z,101269.63
2022-10-11T06:54:12.622Z,101282.78
2022-10-11T06:55:15.268Z,101275.94
2022-10-11T06:56:17.883Z,101280.47
2022-10-11T06:57:21.515Z,101277.50
2022-10-11T06:58:24.122Z,101271.69
2022-10-11T06:59:26.630Z,101279.63
2022-10-11T07:00:29.013Z,101275.44
2022-10-11T07:01:31.695Z,101282.69
2022-10-11T07:02:34.001Z,101279.81
2022-10-11T07:03:37.138Z,101279.22
2022-10-11T07:04:39.560Z,101277.22
2022-10-11T07:05:42.028Z,101283.59
2022-10-11T07:06:44.357Z,101283.09
2022-10-11T07:07:46.885Z,101276.19
2022-10-11T07:08:49.858Z,101278.19
2022-10-11T07:09:52.304Z,101277.22
2022-10-11T07:11:06.718Z,101279.00
2022-10-11T07:12:09.166Z,101279.78
2022-10-11T07:13:16.250Z,101282.59
2022-10-11T07:14:19.554Z,101286.25
2022-10-11T07:15:22.268Z,101291.66
2022-10-11T07:16:25.586Z,101290.25
2022-10-11T07:17:28.129Z,101297.56
2022-10-11T07:18:32.162Z,101289.34
2022-10-11T07:19:34.524Z,101289.81
2022-10-11T07:20:36.905Z,101292.91
2022-10-11T07:21:39.454Z,101291.22
2022-10-11T07:22:41.806Z,101294.53
2022-10-11T07:23:44.613Z,101293.34
2022-10-11T07:24:49.282Z,101296.44
2022-10-11T07:25:54.939Z,101283.34
2022-10-11T07:26:57.524Z,101291.47
2022-10-11T07:28:03.257Z,101291.31
2022-10-11T07:29:07.009Z,101283.75
2022-10-11T07:30:10.071Z,101291.50
2022-10-11T07:31:16.094Z,101284.34
2022-10-11T07:32:18.489Z,101291.31
2022-10-11T07:33:20.799Z,101299.41
2022-10-11T07:34:25.614Z,101288.53
2022-10-11T07:35:30.679Z,101301.84
2022-10-11T07:36:36.186Z,101296.81
2022-10-11T07:37:39.450Z,101299.94
2022-10-11T07:38:44.716Z,101301.59
2022-10-11T07:39:49.524Z,101288.91
2022-10-11T07:40:52.292Z,101307.69
2022-10-11T07:41:57.325Z,101301.97
2022-10-11T07:43:00.995Z,101304.31
2022-10-11T07:44:03.965Z,101295.69
2022-10-11T07:45:06.856Z,101297.47
2022-10-11T07:46:12.805Z,101291.84
2022-10-11T07:47:15.611Z,101303.97
2022-10-11T07:48:18.414Z,101302.31
2022-10-11T07:49:21.102Z,101300.22
2022-10-11T07:50:24.777Z,101301.25
2022-10-11T07:51:27.404Z,101293.28
2022-10-11T07:52:29.764Z,101294.59
2022-10-11T07:53:32.285Z,101298.34
2022-10-11T07:54:40.390Z,101311.63
2022-10-11T07:55:43.661Z,101293.94
2022-10-11T07:56:46.282Z,101294.28
2022-10-11T07:57:48.889Z,101290.53
2022-10-11T07:58:57.545Z,101297.50
2022-10-11T07:59:59.913Z,101301.16
2022-10-11T08:01:02.448Z,101303.25
2022-10-11T08:02:05.034Z,101305.47
2022-10-11T08:03:07.526Z,101299.25
2022-10-11T08:04:10.556Z,101305.78
2022-10-11T08:05:13.070Z,101309.13
2022-10-11T08:06:18.514Z,101307.13
2022-10-11T08:07:21.940Z,101307.34
2022-10-11T08:08:24.477Z,101305.13
2022-10-11T08:09:26.882Z,101295.63
2022-10-11T08:10:29.359Z,101299.91
2022-10-11T08:11:36.031Z,101296.69
2022-10-11T08:12:38.371Z,101303.78
2022-10-11T08:13:40.803Z,101298.75
2022-10-11T08:14:43.504Z,101298.84
2022-10-11T08:15:45.934Z,101299.41
2022-10-11T08:16:53.277Z,101301.75
2022-10-11T08:17:55.702Z,101301.28
2022-10-11T08:18:58.205Z,101297.28
2022-10-11T08:20:00.695Z,101297.50
2022-10-11T08:21:10.519Z,101302.00
2022-10-11T08:22:13.106Z,101303.41
2022-10-11T08:23:17.667Z,101304.78
2022-10-11T08:24:23.633Z,101306.44
2022-10-11T08:25:26.771Z,101307.72
2022-10-11T08:26:29.539Z,101309.97
2022-10-11T08:27:32.213Z,101307.03
2022-10-11T08:28:34.699Z,101303.88
2022-10-11T08:29:37.230Z,101305.53
2022-10-11T08:30:39.606Z,101301.03
2022-10-11T08:31:44.636Z,101309.19
2022-10-11T08:32:47.327Z,101302.88
2022-10-11T08:33:49.661Z,101305.63
2022-10-11T08:34:53.559Z,101312.69
2022-10-11T08:35:57.506Z,101309.13
2022-10-11T08:37:01.979Z,101308.88
2022-10-11T08:38:04.419Z,101305.53
2022-10-11T08:39:07.553Z,101308.38
2022-10-11T08:40:18.286Z,101318.75
2022-10-11T08:41:46.320Z,101310.19
2022-10-11T08:42:57.882Z,101313.66
2022-10-11T08:44:20.317Z,101320.94
2022-10-11T08:45:47.452Z,101325.50
2022-10-11T08:47:00.387Z,101315.69
2022-10-11T08:48:12.629Z,101319.16
2022-10-11T08:49:17.218Z,101313.66
2022-10-11T08:50:22.808Z,101317.25
2022-10-11T08:51:34.055Z,101312.50
2022-10-11T08:52:37.069Z,101323.44
2022-10-11T08:53:49.998Z,101315.97
2022-10-11T08:54:57.728Z,101323.56
2022-10-11T08:56:05.417Z,101322.03
2022-10-11T08:57:13.778Z,101316.31
2022-10-11T08:58:20.592Z,101312.28
2022-10-11T08:59:39.248Z,101311.31
2022-10-11T09:00:43.098Z,101315.84
2022-10-11T09:01:53.037Z,101316.56
2022-10-11T09:03:09.481Z,101320.19
2022-10-11T09:04:17.675Z,101317.63
2022-10-11T09:05:20.855Z,101317.63
2022-10-11T09:06:42.646Z,101323.38
2022-10-11T09:08:00.490Z,101322.88
2022-10-11T09:09:07.224Z,101321.81
2022-10-11T09:10:21.996Z,101322.94
2022-10-11T09:11:31.750Z,101328.31
2022-10-11T09:12:57.777Z,101310.31
2022-10-11T09:14:37.016Z,101309.38
2022-10-11T09:15:55.052Z,101305.78
2022-10-11T09:17:22.706Z,101315.56
2022-10-11T09:18:49.193Z,101316.84
2022-10-11T09:20:27.060Z,101323.81
2022-10-11T09:21:44.422Z,101316.84
2022-10-11T09:22:56.123Z,101317.44
2022-10-11T09:24:21.648Z,101317.88
2022-10-11T09:25:37.951Z,101308.56
2022-10-11T09:26:55.326Z,101315.97
2022-10-11T09:28:03.322Z,101315.41
2022-10-11T09:29:25.123Z,101320.53
2022-10-11T09:30:39.487Z,101324.84
2022-10-11T09:31:54.478Z,101333.16
2022-10-11T09:33:28.383Z,101337.69
2022-10-11T09:34:33.789Z,101332.47
2022-10-11T09:35:49.735Z,101332.72
2022-10-11T09:37:07.345Z,101325.59
2022-10-11T09:38:22.017Z,101326.63
2022-10-11T09:39:45.292Z,101328.25
2022-10-11T09:41:03.917Z,101327.13
2022-10-11T09:42:10.743Z,101332.31
2022-10-11T09:43:14.679Z,101331.94
2022-10-11T09:44:24.593Z,101334.38
2022-10-11T09:45:27.135Z,101334.34
2022-10-11T09:46:45.145Z,101333.16
2022-10-11T09:47:50.088Z,101329.63
2022-10-11T09:48:56.561Z,101327.88
2022-10-11T09:50:06.956Z,101328.84
2022-10-11T09:51:17.686Z,101328.06
2022-10-11T09:52:22.683Z,101326.84
2022-10-11T09:54:15.214Z,101318.34
2022-10-11T09:58:35.223Z,101329.28
2022-10-11T09:59:37.844Z,101326.75
2022-10-11T10:00:40.326Z,101322.19
2022-10-11T10:01:42.564Z,101327.94
2022-10-11T10:02:50.514Z,101335.50
2022-10-11T10:04:07.502Z,101330.25
2022-10-11T10:05:09.672Z,101322.34
2022-10-11T10:06:26.421Z,101323.00
2022-10-11T10:07:34.260Z,101323.44
2022-10-11T10:08:37.212Z,101321.63
2022-10-11T10:09:39.393Z,101322.25
2022-10-11T10:10:59.592Z,101315.31
2022-10-11T10:12:12.257Z,101314.25
2022-10-11T10:13:46.871Z,101317.66
2022-10-11T10:15:18.949Z,101313.50
2022-10-11T10:16:30.666Z,101314.97
2022-10-11T10:17:34.024Z,101320.50
2022-10-11T10:18:58.881Z,101310.09
2022-10-11T10:20:01.300Z,101314.91
2022-10-11T10:21:08.612Z,101312.38
2022-10-11T10:22:21.169Z,101314.13
2022-10-11T10:23:27.989Z,101313.44
2022-10-11T10:24:32.992Z,101316.78
2022-10-11T10:25:43.047Z,101311.44
2022-10-11T10:27:06.646Z,101309.06
2022-10-11T10:28:25.439Z,101310.84
2022-10-11T10:29:27.658Z,101312.66
2022-10-11T10:30:35.354Z,101312.44
2022-10-11T10:32:12.743Z,101315.31
2022-10-11T10:33:12.479Z,101309.06
2022-10-11T10:34:18.233Z,101312.44
2022-10-11T10:35:32.808Z,101309.06
2022-10-11T10:36:39.091Z,101306.59
2022-10-11T10:38:09.420Z,101313.91
2022-10-11T10:39:39.144Z,101315.06
2022-10-11T10:40:58.273Z,101314.59
2022-10-11T10:42:05.143Z,101306.75
2022-10-11T10:43:15.812Z,101314.88
2022-10-11T10:44:17.923Z,101309.91
2022-10-11T10:45:26.202Z,101308.88
2022-10-11T10:46:34.614Z,101315.94
2022-10-11T10:48:14.140Z,101316.47
2022-10-11T10:49:53.310Z,101309.91
2022-10-11T10:51:03.539Z,101313.06
2022-10-11T10:52:36.153Z,101316.56
2022-10-11T10:53:42.342Z,101319.50
2022-10-11T10:54:53.726Z,101316.84
2022-10-11T10:56:01.785Z,101320.06
2022-10-11T10:57:24.103Z,101314.72
2022-10-11T10:58:32.090Z,101318.38
2022-10-11T11:00:01.520Z,101309.81
2022-10-11T11:01:30.139Z,101312.44
2022-10-11T11:02:41.337Z,101313.72
2022-10-11T11:03:53.043Z,101311.75
2022-10-11T11:05:11.150Z,101312.50
2022-10-11T11:06:45.497Z,101307.09
2022-10-11T11:07:54.741Z,101302.75
2022-10-11T11:09:18.447Z,101306.78
2022-10-11T11:10:23.078Z,101299.53
2022-10-11T11:11:47.828Z,101304.38
2022-10-11T11:13:13.181Z,101305.06
2022-10-11T11:14:22.015Z,101306.13
2022-10-11T11:15:59.344Z,101304.66
2022-10-11T11:17:19.699Z,101304.94
2022-10-11T11:18:29.612Z,101306.19
2022-10-11T11:19:53.537Z,101295.53
2022-10-11T11:21:11.167Z,101305.31
2022-10-11T11:22:13.337Z,101302.00
2022-10-11T11:23:37.140Z,101307.00
2022-10-11T11:24:57.754Z,101301.50
2022-10-11T11:26:09.804Z,101298.34
2022-10-11T11:27:38.979Z,101300.50
2022-10-11T11:28:50.226Z,101292.84
2022-10-11T11:29:58.632Z,101300.78
2022-10-11T11:31:19.567Z,101297.47
2022-10-11T11:32:43.481Z,101293.91
2022-10-11T11:34:03.841Z,101287.03
2022-10-11T11:35:32.055Z,101291.78
2022-10-11T11:36:58.115Z,101292.38
2022-10-11T11:38:09.649Z,101293.31
2022-10-11T11:39:24.846Z,101295.38
2022-10-11T11:40:37.373Z,101297.50
2022-10-11T11:41:55.552Z,101296.97
2022-10-11T11:43:01.516Z,101293.19
2022-10-11T11:44:27.184Z,101289.31
2022-10-11T11:45:45.810Z,101295.47
2022-10-11T11:47:03.193Z,101290.38
2022-10-11T11:48:20.104Z,101294.66
2022-10-11T11:50:04.395Z,101290.53
2022-10-11T11:51:17.849Z,101289.44
2022-10-11T11:52:26.732Z,101285.66
2022-10-11T11:53:48.626Z,101279.44
2022-10-11T11:55:15.606Z,101285.78
2022-10-11T11:56:27.886Z,101288.25
2022-10-11T11:57:45.092Z,101291.22
2022-10-11T11:58:54.828Z,101289.44
2022-10-11T12:00:04.466Z,101286.13
2022-10-11T12:01:18.568Z,101283.78
2022-10-11T12:02:43.846Z,101285.56
2022-10-11T12:03:52.630Z,101279.00
2022-10-11T12:04:55.539Z,101270.50
2022-10-11T12:06:23.122Z,101271.91
2022-10-11T12:07:28.099Z,101276.97
2022-10-11T12:08:34.131Z,101272.34
2022-10-11T12:09:38.236Z,101283.78
2022-10-11T12:10:49.235Z,101277.25
2022-10-11T12:11:54.866Z,101278.16
2022-10-11T12:13:09.507Z,101274.91
2022-10-11T12:14:24.882Z,101275.66
2022-10-11T12:15:27.405Z,101274.13
2022-10-11T12:16:29.641Z,101278.81
2022-10-11T12:17:32.423Z,101273.47
2022-10-11T12:18:41.924Z,101275.81
2022-10-11T12:20:05.143Z,101267.97
2022-10-11T12:21:20.096Z,101268.25
2022-10-11T12:22:28.587Z,101268.94
2022-10-11T12:23:30.663Z,101268.91
2022-10-11T12:25:21.410Z,101271.97
2022-10-11T12:26:29.166Z,101268.09
2022-10-11T12:27:45.171Z,101265.50
2022-10-11T12:29:03.955Z,101267.47
2022-10-11T12:30:44.790Z,101272.28
2022-10-11T12:31:49.774Z,101270.31
2022-10-11T12:32:52.808Z,101268.25
2022-10-11T12:34:26.978Z,101266.31
2022-10-11T12:35:32.445Z,101272.81
2022-10-11T12:36:45.271Z,101268.81
2022-10-11T12:37:51.756Z,101266.84
2022-10-11T12:39:20.168Z,101268.19
2022-10-11T12:40:41.906Z,101271.44
2022-10-11T12:41:55.723Z,101266.16
2022-10-11T12:43:31.656Z,101267.00
2022-10-11T12:44:33.905Z,101269.94
2022-10-11T12:45:36.216Z,101262.06
2022-10-11T12:46:50.604Z,101269.13
2022-10-11T12:47:58.440Z,101268.50
2022-10-11T12:49:24.819Z,101270.34
2022-10-11T12:50:42.235Z,101265.81
2022-10-11T12:52:02.353Z,101265.31
2022-10-11T12:53:07.649Z,101272.28
2022-10-11T12:54:27.414Z,101270.97
2022-10-11T12:55:42.886Z,101261.28
2022-10-11T12:56:54.106Z,101267.06
2022-10-11T12:58:15.310Z,101266.75
2022-10-11T12:59:23.635Z,101266.75
2022-10-11T13:00:32.072Z,101268.47